sensor_id;sensor_type;location;lat;lon;timestamp;temperature;humidity
7214;DHT22;3648;50.614;13.830;2023-03-01T00:00:53;-1.80;99.90
7214;DHT22;3648;50.614;13.830;2023-03-01T00:03:20;-1.80;99.90
7214;DHT22;3648;50.614;13.830;2023-03-01T00:05:47;-1.80;99.90
7214;DHT22;3648;50.614;13.830;2023-03-01T00:08:15;-1.80;99.90
7214;DHT22;3648;50.614;13.830;2023-03-01T00:10:42;-1.80;99.90
7214;DHT22;3648;50.614;13.830;2023-03-01T00:13:09;-1.90;99.90
7214;DHT22;3648;50.614;13.830;2023-03-01T00:15:38;-1.90;99.90
7214;DHT22;3648;50.614;13.830;2023-03-01T00:18:05;-1.90;99.90
7214;DHT22;3648;50.614;13.830;2023-03-01T00:20:32;-1.90;99.90
7214;DHT22;3648;50.614;13.830;2023-03-01T00:22:59;-1.90;99.90
7214;DHT22;3648;50.614;13.830;2023-03-01T00:25:28;-2.00;99.90
7214;DHT22;3648;50.614;13.830;2023-03-01T00:27:55;-2.00;99.90
7214;DHT22;3648;50.614;13.830;2023-03-01T00:30:21;-2.00;99.90
7214;DHT22;3648;50.614;13.830;2023-03-01T00:32:48;-2.00;99.90
7214;DHT22;3648;50.614;13.830;2023-03-01T00:35:15;-2.00;99.90
7214;DHT22;3648;50.614;13.830;2023-03-01T00:37:42;-2.00;99.90
7214;DHT22;3648;50.614;13.830;2023-03-01T00:40:10;-2.00;99.90
7214;DHT22;3648;50.614;13.830;2023-03-01T00:42:39;-2.00;99.90
7214;DHT22;3648;50.614;13.830;2023-03-01T00:45:07;-2.00;99.90
7214;DHT22;3648;50.614;13.830;2023-03-01T00:47:34;-2.00;99.90
7214;DHT22;3648;50.614;13.830;2023-03-01T00:50:01;-2.00;99.90
7214;DHT22;3648;50.614;13.830;2023-03-01T00:52:28;-2.00;99.90
7214;DHT22;3648;50.614;13.830;2023-03-01T00:54:55;-2.00;99.90
7214;DHT22;3648;50.614;13.830;2023-03-01T00:57:23;-2.00;99.90
7214;DHT22;3648;50.614;13.830;2023-03-01T00:59:51;-2.00;99.90
7214;DHT22;3648;50.614;13.830;2023-03-01T01:02:19;-2.00;99.90
7214;DHT22;3648;50.614;13.830;2023-03-01T01:04:47;-2.10;99.90
7214;DHT22;3648;50.614;13.830;2023-03-01T01:07:14;-2.00;99.90
7214;DHT22;3648;50.614;13.830;2023-03-01T01:09:41;-2.10;99.90
7214;DHT22;3648;50.614;13.830;2023-03-01T01:12:08;-2.10;99.90
7214;DHT22;3648;50.614;13.830;2023-03-01T01:14:36;-2.10;99.90
7214;DHT22;3648;50.614;13.830;2023-03-01T01:17:04;-2.10;99.90
7214;DHT22;3648;50.614;13.830;2023-03-01T01:19:31;-2.10;99.90
7214;DHT22;3648;50.614;13.830;2023-03-01T01:21:58;-2.10;99.90
7214;DHT22;3648;50.614;13.830;2023-03-01T01:24:25;-2.10;99.90
7214;DHT22;3648;50.614;13.830;2023-03-01T01:26:52;-2.00;99.90
7214;DHT22;3648;50.614;13.830;2023-03-01T01:29:19;-2.10;99.90
7214;DHT22;3648;50.614;13.830;2023-03-01T01:31:47;-2.10;99.90
7214;DHT22;3648;50.614;13.830;2023-03-01T01:34:18;-2.10;99.90
7214;DHT22;3648;50.614;13.830;2023-03-01T01:36:48;-2.10;99.90
7214;DHT22;3648;50.614;13.830;2023-03-01T01:39:15;-2.10;99.90
7214;DHT22;3648;50.614;13.830;2023-03-01T01:41:43;-2.10;99.90
7214;DHT22;3648;50.614;13.830;2023-03-01T01:44:13;-2.10;99.90
7214;DHT22;3648;50.614;13.830;2023-03-01T01:46:41;-2.10;99.90
7214;DHT22;3648;50.614;13.830;2023-03-01T01:52:06;-2.40;99.90
7214;DHT22;3648;50.614;13.830;2023-03-01T01:54:40;-2.50;99.90
7214;DHT22;3648;50.614;13.830;2023-03-01T01:57:12;-2.60;99.90
7214;DHT22;3648;50.614;13.830;2023-03-01T01:59:43;-2.50;99.90
7214;DHT22;3648;50.614;13.830;2023-03-01T02:02:12;-2.60;99.90
7214;DHT22;3648;50.614;13.830;2023-03-01T02:04:39;-2.60;99.90
7214;DHT22;3648;50.614;13.830;2023-03-01T02:07:13;-2.70;99.90
7214;DHT22;3648;50.614;13.830;2023-03-01T02:09:43;-2.60;99.90
7214;DHT22;3648;50.614;13.830;2023-03-01T02:12:13;-2.60;99.90
7214;DHT22;3648;50.614;13.830;2023-03-01T02:14:40;-2.60;99.90
7214;DHT22;3648;50.614;13.830;2023-03-01T02:17:07;-2.60;99.90
7214;DHT22;3648;50.614;13.830;2023-03-01T02:19:45;-2.70;99.90
7214;DHT22;3648;50.614;13.830;2023-03-01T02:22:23;-2.70;99.90
7214;DHT22;3648;50.614;13.830;2023-03-01T02:25:00;-2.70;99.90
7214;DHT22;3648;50.614;13.830;2023-03-01T02:27:36;-2.70;99.90
7214;DHT22;3648;50.614;13.830;2023-03-01T02:30:08;-2.70;99.90
7214;DHT22;3648;50.614;13.830;2023-03-01T02:32:38;-2.80;99.90
7214;DHT22;3648;50.614;13.830;2023-03-01T02:35:09;-2.80;99.90
7214;DHT22;3648;50.614;13.830;2023-03-01T02:37:37;-2.80;99.90
7214;DHT22;3648;50.614;13.830;2023-03-01T02:40:08;-2.90;99.90
7214;DHT22;3648;50.614;13.830;2023-03-01T02:42:44;-2.90;99.90
7214;DHT22;3648;50.614;13.830;2023-03-01T02:45:15;-2.90;99.90
7214;DHT22;3648;50.614;13.830;2023-03-01T02:47:42;-2.80;99.90
7214;DHT22;3648;50.614;13.830;2023-03-01T02:50:19;-2.80;99.90
7214;DHT22;3648;50.614;13.830;2023-03-01T02:52:55;-2.80;99.90
7214;DHT22;3648;50.614;13.830;2023-03-01T02:55:23;-2.80;99.90
7214;DHT22;3648;50.614;13.830;2023-03-01T02:57:50;-2.90;99.90
7214;DHT22;3648;50.614;13.830;2023-03-01T03:00:21;-2.80;99.90
7214;DHT22;3648;50.614;13.830;2023-03-01T03:02:52;-2.90;99.90
7214;DHT22;3648;50.614;13.830;2023-03-01T03:05:21;-2.90;99.90
7214;DHT22;3648;50.614;13.830;2023-03-01T03:07:49;-3.00;99.90
7214;DHT22;3648;50.614;13.830;2023-03-01T03:10:21;-2.90;99.90
7214;DHT22;3648;50.614;13.830;2023-03-01T03:12:50;-2.90;99.90
7214;DHT22;3648;50.614;13.830;2023-03-01T03:15:20;-2.90;99.90
7214;DHT22;3648;50.614;13.830;2023-03-01T03:17:47;-2.90;99.90
7214;DHT22;3648;50.614;13.830;2023-03-01T03:22:45;-3.10;99.90
7214;DHT22;3648;50.614;13.830;2023-03-01T03:25:12;-3.20;99.90
7214;DHT22;3648;50.614;13.830;2023-03-01T03:27:40;-3.20;99.90
7214;DHT22;3648;50.614;13.830;2023-03-01T03:30:10;-3.30;99.90
7214;DHT22;3648;50.614;13.830;2023-03-01T03:32:39;-3.30;99.90
7214;DHT22;3648;50.614;13.830;2023-03-01T03:35:08;-3.30;99.90
7214;DHT22;3648;50.614;13.830;2023-03-01T03:37:36;-3.30;99.90
7214;DHT22;3648;50.614;13.830;2023-03-01T03:40:21;-3.30;99.90
7214;DHT22;3648;50.614;13.830;2023-03-01T03:42:48;-3.40;99.90
7214;DHT22;3648;50.614;13.830;2023-03-01T03:45:15;-3.40;99.90
7214;DHT22;3648;50.614;13.830;2023-03-01T03:47:44;-3.40;99.90
7214;DHT22;3648;50.614;13.830;2023-03-01T03:50:12;-3.30;99.90
7214;DHT22;3648;50.614;13.830;2023-03-01T03:52:40;-3.30;99.90
7214;DHT22;3648;50.614;13.830;2023-03-01T03:55:08;-3.30;99.90
7214;DHT22;3648;50.614;13.830;2023-03-01T03:57:36;-3.40;99.90
7214;DHT22;3648;50.614;13.830;2023-03-01T04:00:05;-3.30;99.90
7214;DHT22;3648;50.614;13.830;2023-03-01T04:02:38;-3.30;99.90
7214;DHT22;3648;50.614;13.830;2023-03-01T04:05:08;-3.30;99.90
7214;DHT22;3648;50.614;13.830;2023-03-01T04:07:35;-3.30;99.90
7214;DHT22;3648;50.614;13.830;2023-03-01T04:10:02;-3.30;99.90
7214;DHT22;3648;50.614;13.830;2023-03-01T04:12:29;-3.20;99.90
7214;DHT22;3648;50.614;13.830;2023-03-01T04:14:59;-3.20;99.90
7214;DHT22;3648;50.614;13.830;2023-03-01T04:17:26;-3.20;99.90
7214;DHT22;3648;50.614;13.830;2023-03-01T04:19:53;-3.20;99.90
7214;DHT22;3648;50.614;13.830;2023-03-01T04:22:21;-3.20;99.90
7214;DHT22;3648;50.614;13.830;2023-03-01T04:24:55;-3.20;99.90
7214;DHT22;3648;50.614;13.830;2023-03-01T04:27:22;-3.20;99.90
7214;DHT22;3648;50.614;13.830;2023-03-01T04:29:49;-3.30;99.90
7214;DHT22;3648;50.614;13.830;2023-03-01T04:32:16;-3.30;99.90
7214;DHT22;3648;50.614;13.830;2023-03-01T04:34:43;-3.30;99.90
7214;DHT22;3648;50.614;13.830;2023-03-01T04:37:10;-3.30;99.90
7214;DHT22;3648;50.614;13.830;2023-03-01T04:39:39;-3.30;99.90
7214;DHT22;3648;50.614;13.830;2023-03-01T04:42:10;-3.30;99.90
7214;DHT22;3648;50.614;13.830;2023-03-01T04:44:37;-3.30;99.90
7214;DHT22;3648;50.614;13.830;2023-03-01T04:47:04;-3.30;99.90
7214;DHT22;3648;50.614;13.830;2023-03-01T04:49:31;-3.30;99.90
7214;DHT22;3648;50.614;13.830;2023-03-01T04:51:58;-3.30;99.90
7214;DHT22;3648;50.614;13.830;2023-03-01T04:54:27;-3.20;99.90
7214;DHT22;3648;50.614;13.830;2023-03-01T04:56:56;-3.30;99.90
7214;DHT22;3648;50.614;13.830;2023-03-01T04:59:24;-3.30;99.90
7214;DHT22;3648;50.614;13.830;2023-03-01T05:01:51;-3.30;99.90
7214;DHT22;3648;50.614;13.830;2023-03-01T05:04:21;-3.30;99.90
7214;DHT22;3648;50.614;13.830;2023-03-01T05:06:48;-3.40;99.90
7214;DHT22;3648;50.614;13.830;2023-03-01T05:09:16;-3.40;99.90
7214;DHT22;3648;50.614;13.830;2023-03-01T05:11:43;-3.40;99.90
7214;DHT22;3648;50.614;13.830;2023-03-01T05:14:11;-3.30;99.90
7214;DHT22;3648;50.614;13.830;2023-03-01T05:16:38;-3.30;99.90
7214;DHT22;3648;50.614;13.830;2023-03-01T05:19:05;-3.30;99.90
7214;DHT22;3648;50.614;13.830;2023-03-01T05:21:37;-3.30;99.90
7214;DHT22;3648;50.614;13.830;2023-03-01T05:24:24;-3.30;99.90
7214;DHT22;3648;50.614;13.830;2023-03-01T05:26:52;-3.30;99.90
7214;DHT22;3648;50.614;13.830;2023-03-01T05:29:21;-3.40;99.90
7214;DHT22;3648;50.614;13.830;2023-03-01T05:31:51;-3.40;99.90
7214;DHT22;3648;50.614;13.830;2023-03-01T05:34:19;-3.40;99.90
7214;DHT22;3648;50.614;13.830;2023-03-01T05:36:48;-3.40;99.90
7214;DHT22;3648;50.614;13.830;2023-03-01T05:39:16;-3.50;99.90
7214;DHT22;3648;50.614;13.830;2023-03-01T05:41:43;-3.50;99.90
7214;DHT22;3648;50.614;13.830;2023-03-01T05:44:10;-3.60;99.90
7214;DHT22;3648;50.614;13.830;2023-03-01T05:46:39;-3.60;99.90
7214;DHT22;3648;50.614;13.830;2023-03-01T05:49:06;-3.60;99.90
7214;DHT22;3648;50.614;13.830;2023-03-01T05:51:33;-3.60;99.90
7214;DHT22;3648;50.614;13.830;2023-03-01T05:54:00;-3.70;99.90
7214;DHT22;3648;50.614;13.830;2023-03-01T05:56:27;-3.60;99.90
7214;DHT22;3648;50.614;13.830;2023-03-01T05:58:54;-3.60;99.90
7214;DHT22;3648;50.614;13.830;2023-03-01T06:01:21;-3.70;99.90
7214;DHT22;3648;50.614;13.830;2023-03-01T06:03:49;-3.70;99.90
7214;DHT22;3648;50.614;13.830;2023-03-01T06:06:17;-3.70;99.90
7214;DHT22;3648;50.614;13.830;2023-03-01T06:08:44;-3.70;99.90
7214;DHT22;3648;50.614;13.830;2023-03-01T06:11:11;-3.70;99.90
7214;DHT22;3648;50.614;13.830;2023-03-01T06:13:41;-3.70;99.90
7214;DHT22;3648;50.614;13.830;2023-03-01T06:16:09;-3.70;99.90
7214;DHT22;3648;50.614;13.830;2023-03-01T06:18:36;-3.60;99.90
7214;DHT22;3648;50.614;13.830;2023-03-01T06:21:05;-3.60;99.90
7214;DHT22;3648;50.614;13.830;2023-03-01T06:23:33;-3.60;99.90
7214;DHT22;3648;50.614;13.830;2023-03-01T06:26:00;-3.60;99.90
7214;DHT22;3648;50.614;13.830;2023-03-01T06:28:27;-3.50;99.90
7214;DHT22;3648;50.614;13.830;2023-03-01T06:30:54;-3.50;99.90
7214;DHT22;3648;50.614;13.830;2023-03-01T06:33:21;-3.40;99.90
7214;DHT22;3648;50.614;13.830;2023-03-01T06:35:49;-3.30;99.90
7214;DHT22;3648;50.614;13.830;2023-03-01T06:38:18;-3.20;99.90
7214;DHT22;3648;50.614;13.830;2023-03-01T06:40:45;-3.10;99.90
7214;DHT22;3648;50.614;13.830;2023-03-01T06:43:18;-2.90;99.90
7214;DHT22;3648;50.614;13.830;2023-03-01T06:45:44;-2.80;99.90
7214;DHT22;3648;50.614;13.830;2023-03-01T06:48:11;-2.70;99.90
7214;DHT22;3648;50.614;13.830;2023-03-01T06:50:38;-2.50;99.90
7214;DHT22;3648;50.614;13.830;2023-03-01T06:53:05;-2.30;99.90
7214;DHT22;3648;50.614;13.830;2023-03-01T06:55:33;-2.10;99.90
7214;DHT22;3648;50.614;13.830;2023-03-01T06:58:02;-1.90;99.90
7214;DHT22;3648;50.614;13.830;2023-03-01T07:00:29;-1.60;99.90
7214;DHT22;3648;50.614;13.830;2023-03-01T07:02:58;-1.40;99.90
7214;DHT22;3648;50.614;13.830;2023-03-01T07:05:25;-1.20;99.90
7214;DHT22;3648;50.614;13.830;2023-03-01T07:07:53;-1.00;99.90
7214;DHT22;3648;50.614;13.830;2023-03-01T07:10:21;-0.80;99.90
7214;DHT22;3648;50.614;13.830;2023-03-01T07:12:49;-0.40;99.90
7214;DHT22;3648;50.614;13.830;2023-03-01T07:15:16;-0.20;99.90
7214;DHT22;3648;50.614;13.830;2023-03-01T07:17:43;-0.10;99.90
7214;DHT22;3648;50.614;13.830;2023-03-01T07:20:13;0.10;99.90
7214;DHT22;3648;50.614;13.830;2023-03-01T07:22:41;0.30;99.90
7214;DHT22;3648;50.614;13.830;2023-03-01T07:25:08;0.30;99.90
7214;DHT22;3648;50.614;13.830;2023-03-01T07:27:36;0.40;99.90
7214;DHT22;3648;50.614;13.830;2023-03-01T07:30:06;0.60;99.90
7214;DHT22;3648;50.614;13.830;2023-03-01T07:32:33;0.70;99.90
7214;DHT22;3648;50.614;13.830;2023-03-01T07:35:00;0.90;99.90
7214;DHT22;3648;50.614;13.830;2023-03-01T07:37:27;1.10;99.90
7214;DHT22;3648;50.614;13.830;2023-03-01T07:39:54;1.20;99.90
7214;DHT22;3648;50.614;13.830;2023-03-01T07:42:21;1.30;99.90
7214;DHT22;3648;50.614;13.830;2023-03-01T07:44:48;1.40;99.90
7214;DHT22;3648;50.614;13.830;2023-03-01T07:47:16;1.60;99.90
7214;DHT22;3648;50.614;13.830;2023-03-01T07:49:43;1.60;99.90
7214;DHT22;3648;50.614;13.830;2023-03-01T07:52:10;1.80;99.90
7214;DHT22;3648;50.614;13.830;2023-03-01T07:54:37;2.10;99.90
7214;DHT22;3648;50.614;13.830;2023-03-01T07:57:05;2.00;99.90
7214;DHT22;3648;50.614;13.830;2023-03-01T07:59:32;2.40;99.90
7214;DHT22;3648;50.614;13.830;2023-03-01T08:01:59;2.60;99.90
7214;DHT22;3648;50.614;13.830;2023-03-01T08:04:28;2.80;99.90
7214;DHT22;3648;50.614;13.830;2023-03-01T08:06:55;3.00;99.90
7214;DHT22;3648;50.614;13.830;2023-03-01T08:09:22;3.10;99.90
7214;DHT22;3648;50.614;13.830;2023-03-01T08:11:49;3.20;99.90
7214;DHT22;3648;50.614;13.830;2023-03-01T08:14:16;3.30;99.90
7214;DHT22;3648;50.614;13.830;2023-03-01T08:16:43;3.40;99.90
7214;DHT22;3648;50.614;13.830;2023-03-01T08:19:11;3.40;99.90
7214;DHT22;3648;50.614;13.830;2023-03-01T08:21:40;3.60;99.90
7214;DHT22;3648;50.614;13.830;2023-03-01T08:24:08;3.60;99.90
7214;DHT22;3648;50.614;13.830;2023-03-01T08:26:36;3.70;99.90
7214;DHT22;3648;50.614;13.830;2023-03-01T08:29:03;3.70;99.90
7214;DHT22;3648;50.614;13.830;2023-03-01T08:31:32;4.00;99.90
7214;DHT22;3648;50.614;13.830;2023-03-01T08:34:02;4.20;99.90
7214;DHT22;3648;50.614;13.830;2023-03-01T08:36:31;4.30;99.90
7214;DHT22;3648;50.614;13.830;2023-03-01T08:39:00;4.50;99.90
7214;DHT22;3648;50.614;13.830;2023-03-01T08:41:27;4.60;99.90
7214;DHT22;3648;50.614;13.830;2023-03-01T08:43:56;4.70;99.90
7214;DHT22;3648;50.614;13.830;2023-03-01T08:46:25;4.80;99.90
7214;DHT22;3648;50.614;13.830;2023-03-01T08:48:52;4.30;99.90
7214;DHT22;3648;50.614;13.830;2023-03-01T08:51:22;4.30;99.90
7214;DHT22;3648;50.614;13.830;2023-03-01T08:53:50;4.70;99.90
7214;DHT22;3648;50.614;13.830;2023-03-01T08:56:19;5.00;99.90
7214;DHT22;3648;50.614;13.830;2023-03-01T08:58:47;5.40;99.90
7214;DHT22;3648;50.614;13.830;2023-03-01T09:01:17;5.60;99.90
7214;DHT22;3648;50.614;13.830;2023-03-01T09:03:45;5.60;99.90
7214;DHT22;3648;50.614;13.830;2023-03-01T09:06:12;5.70;99.90
7214;DHT22;3648;50.614;13.830;2023-03-01T09:08:40;5.90;99.90
7214;DHT22;3648;50.614;13.830;2023-03-01T09:11:10;5.90;99.90
7214;DHT22;3648;50.614;13.830;2023-03-01T09:13:38;5.60;99.90
7214;DHT22;3648;50.614;13.830;2023-03-01T09:16:07;5.50;99.90
7214;DHT22;3648;50.614;13.830;2023-03-01T09:18:35;5.10;99.90
7214;DHT22;3648;50.614;13.830;2023-03-01T09:21:03;5.30;99.90
7214;DHT22;3648;50.614;13.830;2023-03-01T09:23:33;5.70;99.90
7214;DHT22;3648;50.614;13.830;2023-03-01T09:26:02;6.10;99.90
7214;DHT22;3648;50.614;13.830;2023-03-01T09:28:29;6.30;99.90
7214;DHT22;3648;50.614;13.830;2023-03-01T09:30:59;6.40;99.90
7214;DHT22;3648;50.614;13.830;2023-03-01T09:33:27;6.30;99.90
7214;DHT22;3648;50.614;13.830;2023-03-01T09:35:57;6.30;99.90
7214;DHT22;3648;50.614;13.830;2023-03-01T09:38:24;6.40;99.90
7214;DHT22;3648;50.614;13.830;2023-03-01T09:40:51;6.60;99.90
7214;DHT22;3648;50.614;13.830;2023-03-01T09:43:23;6.70;99.90
7214;DHT22;3648;50.614;13.830;2023-03-01T09:45:54;6.90;99.90
7214;DHT22;3648;50.614;13.830;2023-03-01T09:48:26;6.80;99.90
7214;DHT22;3648;50.614;13.830;2023-03-01T09:50:53;6.70;99.90
7214;DHT22;3648;50.614;13.830;2023-03-01T09:53:22;6.60;99.90
7214;DHT22;3648;50.614;13.830;2023-03-01T09:55:53;6.90;99.90
7214;DHT22;3648;50.614;13.830;2023-03-01T09:58:34;6.90;99.90
7214;DHT22;3648;50.614;13.830;2023-03-01T10:01:15;6.60;99.90
7214;DHT22;3648;50.614;13.830;2023-03-01T10:03:57;6.50;99.90
7214;DHT22;3648;50.614;13.830;2023-03-01T10:06:27;6.20;99.90
7214;DHT22;3648;50.614;13.830;2023-03-01T10:08:57;6.20;99.90
7214;DHT22;3648;50.614;13.830;2023-03-01T10:11:28;6.10;99.90
7214;DHT22;3648;50.614;13.830;2023-03-01T10:14:01;6.20;99.90
7214;DHT22;3648;50.614;13.830;2023-03-01T10:16:38;6.30;99.90
7214;DHT22;3648;50.614;13.830;2023-03-01T10:19:11;6.30;99.90
7214;DHT22;3648;50.614;13.830;2023-03-01T10:21:43;6.00;99.90
7214;DHT22;3648;50.614;13.830;2023-03-01T10:24:13;6.20;99.90
7214;DHT22;3648;50.614;13.830;2023-03-01T10:26:48;6.20;99.90
7214;DHT22;3648;50.614;13.830;2023-03-01T10:29:15;6.30;99.90
7214;DHT22;3648;50.614;13.830;2023-03-01T10:31:44;6.40;99.90
7214;DHT22;3648;50.614;13.830;2023-03-01T10:34:16;6.50;99.90
7214;DHT22;3648;50.614;13.830;2023-03-01T10:36:45;6.40;99.90
7214;DHT22;3648;50.614;13.830;2023-03-01T10:39:16;6.50;99.90
7214;DHT22;3648;50.614;13.830;2023-03-01T10:42:03;6.70;99.90
7214;DHT22;3648;50.614;13.830;2023-03-01T10:44:42;6.80;99.90
7214;DHT22;3648;50.614;13.830;2023-03-01T10:47:16;7.10;99.90
7214;DHT22;3648;50.614;13.830;2023-03-01T10:49:59;7.10;99.90
7214;DHT22;3648;50.614;13.830;2023-03-01T10:52:29;6.90;99.90
7214;DHT22;3648;50.614;13.830;2023-03-01T10:54:58;7.00;99.90
7214;DHT22;3648;50.614;13.830;2023-03-01T10:57:31;7.20;99.90
7214;DHT22;3648;50.614;13.830;2023-03-01T11:00:18;7.50;99.90
7214;DHT22;3648;50.614;13.830;2023-03-01T11:02:48;7.00;99.90
7214;DHT22;3648;50.614;13.830;2023-03-01T11:05:23;7.20;99.90
7214;DHT22;3648;50.614;13.830;2023-03-01T11:07:52;7.30;99.90
7214;DHT22;3648;50.614;13.830;2023-03-01T11:10:21;7.30;99.90
7214;DHT22;3648;50.614;13.830;2023-03-01T11:12:50;7.40;99.90
7214;DHT22;3648;50.614;13.830;2023-03-01T11:15:23;7.10;99.90
7214;DHT22;3648;50.614;13.830;2023-03-01T11:17:51;7.10;99.90
7214;DHT22;3648;50.614;13.830;2023-03-01T11:20:25;7.00;99.90
7214;DHT22;3648;50.614;13.830;2023-03-01T11:22:55;7.00;99.90
7214;DHT22;3648;50.614;13.830;2023-03-01T11:25:25;7.00;99.90
7214;DHT22;3648;50.614;13.830;2023-03-01T11:27:54;6.90;99.90
7214;DHT22;3648;50.614;13.830;2023-03-01T11:30:25;6.90;99.90
7214;DHT22;3648;50.614;13.830;2023-03-01T11:33:11;6.90;99.90
7214;DHT22;3648;50.614;13.830;2023-03-01T11:35:47;6.90;99.90
7214;DHT22;3648;50.614;13.830;2023-03-01T11:38:21;6.90;99.90
7214;DHT22;3648;50.614;13.830;2023-03-01T11:40:52;6.90;99.90
7214;DHT22;3648;50.614;13.830;2023-03-01T11:43:26;6.80;99.90
7214;DHT22;3648;50.614;13.830;2023-03-01T11:49:10;6.80;99.90
7214;DHT22;3648;50.614;13.830;2023-03-01T11:51:50;6.70;99.90
7214;DHT22;3648;50.614;13.830;2023-03-01T11:54:33;6.80;99.90
7214;DHT22;3648;50.614;13.830;2023-03-01T11:57:11;6.90;99.90
7214;DHT22;3648;50.614;13.830;2023-03-01T11:59:58;6.90;99.90
7214;DHT22;3648;50.614;13.830;2023-03-01T12:02:51;7.00;99.90
7214;DHT22;3648;50.614;13.830;2023-03-01T12:05:47;6.90;99.90
7214;DHT22;3648;50.614;13.830;2023-03-01T12:08:22;7.00;99.90
7214;DHT22;3648;50.614;13.830;2023-03-01T12:10:57;7.10;99.90
7214;DHT22;3648;50.614;13.830;2023-03-01T12:13:51;6.80;99.90
7214;DHT22;3648;50.614;13.830;2023-03-01T12:16:31;7.00;99.90
7214;DHT22;3648;50.614;13.830;2023-03-01T12:19:08;7.00;99.90
7214;DHT22;3648;50.614;13.830;2023-03-01T12:21:50;7.00;99.90
7214;DHT22;3648;50.614;13.830;2023-03-01T12:27:41;7.00;99.90
7214;DHT22;3648;50.614;13.830;2023-03-01T12:30:25;7.00;99.90
7214;DHT22;3648;50.614;13.830;2023-03-01T12:33:04;7.00;99.90
7214;DHT22;3648;50.614;13.830;2023-03-01T12:38:33;7.10;99.90
7214;DHT22;3648;50.614;13.830;2023-03-01T12:44:29;7.20;99.90
7214;DHT22;3648;50.614;13.830;2023-03-01T12:47:06;7.20;99.90
7214;DHT22;3648;50.614;13.830;2023-03-01T12:49:37;7.20;99.90
7214;DHT22;3648;50.614;13.830;2023-03-01T12:52:11;7.20;99.90
7214;DHT22;3648;50.614;13.830;2023-03-01T12:54:38;7.20;99.90
7214;DHT22;3648;50.614;13.830;2023-03-01T12:57:12;7.20;99.90
7214;DHT22;3648;50.614;13.830;2023-03-01T12:59:48;7.20;99.90
7214;DHT22;3648;50.614;13.830;2023-03-01T13:02:23;7.10;99.90
7214;DHT22;3648;50.614;13.830;2023-03-01T13:04:58;7.10;99.90
7214;DHT22;3648;50.614;13.830;2023-03-01T13:07:32;7.10;99.90
7214;DHT22;3648;50.614;13.830;2023-03-01T13:10:11;7.10;99.90
7214;DHT22;3648;50.614;13.830;2023-03-01T13:12:51;7.00;99.90
7214;DHT22;3648;50.614;13.830;2023-03-01T13:15:27;6.90;99.90
7214;DHT22;3648;50.614;13.830;2023-03-01T13:17:55;6.90;99.90
7214;DHT22;3648;50.614;13.830;2023-03-01T13:20:26;6.80;99.90
7214;DHT22;3648;50.614;13.830;2023-03-01T13:23:06;6.90;99.90
7214;DHT22;3648;50.614;13.830;2023-03-01T13:25:33;7.00;99.90
7214;DHT22;3648;50.614;13.830;2023-03-01T13:31:08;7.00;99.90
7214;DHT22;3648;50.614;13.830;2023-03-01T13:33:42;7.00;99.90
7214;DHT22;3648;50.614;13.830;2023-03-01T13:36:10;7.00;99.90
7214;DHT22;3648;50.614;13.830;2023-03-01T13:38:54;7.00;99.90
7214;DHT22;3648;50.614;13.830;2023-03-01T13:41:48;7.00;99.90
7214;DHT22;3648;50.614;13.830;2023-03-01T13:44:21;7.00;99.90
7214;DHT22;3648;50.614;13.830;2023-03-01T13:46:55;7.00;99.90
7214;DHT22;3648;50.614;13.830;2023-03-01T13:49:27;7.10;99.90
7214;DHT22;3648;50.614;13.830;2023-03-01T13:51:55;7.00;99.90
7214;DHT22;3648;50.614;13.830;2023-03-01T13:54:28;7.10;99.90
7214;DHT22;3648;50.614;13.830;2023-03-01T13:56:56;7.10;99.90
7214;DHT22;3648;50.614;13.830;2023-03-01T13:59:25;7.10;99.90
7214;DHT22;3648;50.614;13.830;2023-03-01T14:01:54;7.10;99.90
7214;DHT22;3648;50.614;13.830;2023-03-01T14:04:23;7.10;99.90
7214;DHT22;3648;50.614;13.830;2023-03-01T14:06:51;7.10;99.90
7214;DHT22;3648;50.614;13.830;2023-03-01T14:09:20;7.10;99.90
7214;DHT22;3648;50.614;13.830;2023-03-01T14:12:25;7.10;99.90
7214;DHT22;3648;50.614;13.830;2023-03-01T14:14:58;7.10;99.90
7214;DHT22;3648;50.614;13.830;2023-03-01T14:17:50;7.20;99.90
7214;DHT22;3648;50.614;13.830;2023-03-01T14:20:20;7.20;99.90
7214;DHT22;3648;50.614;13.830;2023-03-01T14:22:49;7.20;99.90
7214;DHT22;3648;50.614;13.830;2023-03-01T14:25:23;7.10;99.90
7214;DHT22;3648;50.614;13.830;2023-03-01T14:27:55;7.10;99.90
7214;DHT22;3648;50.614;13.830;2023-03-01T14:30:24;7.10;99.90
7214;DHT22;3648;50.614;13.830;2023-03-01T14:32:55;7.10;99.90
7214;DHT22;3648;50.614;13.830;2023-03-01T14:35:25;7.10;99.90
7214;DHT22;3648;50.614;13.830;2023-03-01T14:37:52;7.10;99.90
7214;DHT22;3648;50.614;13.830;2023-03-01T14:40:23;7.00;99.90
7214;DHT22;3648;50.614;13.830;2023-03-01T14:42:52;7.00;99.90
7214;DHT22;3648;50.614;13.830;2023-03-01T14:45:19;7.00;99.90
7214;DHT22;3648;50.614;13.830;2023-03-01T14:47:46;7.00;99.90
7214;DHT22;3648;50.614;13.830;2023-03-01T14:50:23;6.90;99.90
7214;DHT22;3648;50.614;13.830;2023-03-01T14:52:53;6.90;99.90
7214;DHT22;3648;50.614;13.830;2023-03-01T14:55:24;6.90;99.90
7214;DHT22;3648;50.614;13.830;2023-03-01T14:57:52;6.80;99.90
7214;DHT22;3648;50.614;13.830;2023-03-01T15:00:22;6.80;99.90
7214;DHT22;3648;50.614;13.830;2023-03-01T15:02:51;6.70;99.90
7214;DHT22;3648;50.614;13.830;2023-03-01T15:05:25;6.70;99.90
7214;DHT22;3648;50.614;13.830;2023-03-01T15:07:54;6.60;99.90
7214;DHT22;3648;50.614;13.830;2023-03-01T15:10:23;6.60;99.90
7214;DHT22;3648;50.614;13.830;2023-03-01T15:12:50;6.50;99.90
7214;DHT22;3648;50.614;13.830;2023-03-01T15:15:37;6.60;99.90
7214;DHT22;3648;50.614;13.830;2023-03-01T15:18:14;6.50;99.90
7214;DHT22;3648;50.614;13.830;2023-03-01T15:20:44;6.50;99.90
7214;DHT22;3648;50.614;13.830;2023-03-01T15:23:20;6.40;99.90
7214;DHT22;3648;50.614;13.830;2023-03-01T15:25:48;6.20;99.90
7214;DHT22;3648;50.614;13.830;2023-03-01T15:28:23;6.20;99.90
7214;DHT22;3648;50.614;13.830;2023-03-01T15:30:57;6.20;99.90
7214;DHT22;3648;50.614;13.830;2023-03-01T15:33:31;6.10;99.90
7214;DHT22;3648;50.614;13.830;2023-03-01T15:36:00;6.10;99.90
7214;DHT22;3648;50.614;13.830;2023-03-01T15:38:49;6.00;99.90
7214;DHT22;3648;50.614;13.830;2023-03-01T15:41:29;6.00;99.90
7214;DHT22;3648;50.614;13.830;2023-03-01T15:43:58;5.80;99.90
7214;DHT22;3648;50.614;13.830;2023-03-01T15:46:28;5.80;99.90
7214;DHT22;3648;50.614;13.830;2023-03-01T15:48:58;5.70;99.90
7214;DHT22;3648;50.614;13.830;2023-03-01T15:51:34;5.60;99.90
7214;DHT22;3648;50.614;13.830;2023-03-01T15:54:06;5.50;99.90
7214;DHT22;3648;50.614;13.830;2023-03-01T15:56:33;5.50;99.90
7214;DHT22;3648;50.614;13.830;2023-03-01T15:59:02;5.40;99.90
7214;DHT22;3648;50.614;13.830;2023-03-01T16:01:30;5.30;99.90
7214;DHT22;3648;50.614;13.830;2023-03-01T16:03:59;5.20;99.90
7214;DHT22;3648;50.614;13.830;2023-03-01T16:06:26;5.10;99.90
7214;DHT22;3648;50.614;13.830;2023-03-01T16:08:55;5.10;99.90
7214;DHT22;3648;50.614;13.830;2023-03-01T16:11:22;5.00;99.90
7214;DHT22;3648;50.614;13.830;2023-03-01T16:13:49;4.90;99.90
7214;DHT22;3648;50.614;13.830;2023-03-01T16:16:16;4.90;99.90
7214;DHT22;3648;50.614;13.830;2023-03-01T16:18:44;4.80;99.90
7214;DHT22;3648;50.614;13.830;2023-03-01T16:21:14;4.70;99.90
7214;DHT22;3648;50.614;13.830;2023-03-01T16:23:42;4.60;99.90
7214;DHT22;3648;50.614;13.830;2023-03-01T16:26:12;4.60;99.90
7214;DHT22;3648;50.614;13.830;2023-03-01T16:28:40;4.50;99.90
7214;DHT22;3648;50.614;13.830;2023-03-01T16:31:07;4.40;99.90
7214;DHT22;3648;50.614;13.830;2023-03-01T16:33:34;4.30;99.90
7214;DHT22;3648;50.614;13.830;2023-03-01T16:36:06;4.30;99.90